.
WxDataArchive / Data Records for 2013-03-03
2013-03-02 March 2013 2013-03-04

Data Records for Sunday, 03 March 2013

Time	Temp	Chill	HIndex	Humid	Dewpt	 Wind 	HiWind	WindDir	Rain 	Barom 
-----	----	-----	------	-----	-----	------	------	-------	-----	----- 
00:00	25.1	25.1	25.1	64	14.7	1	3	270	0.00	30.111 
00:05	25.1	25.1	25.1	64	14.7	0	3	270	0.00	30.111 
00:10	25.1	25.1	25.1	64	14.7	0	2	270	0.00	30.111 
00:15	25.1	25.1	25.1	64	14.7	0	2	270	0.00	30.105 
00:20	25.1	25.1	25.1	64	14.7	0	2	270	0.00	30.105 
00:25	25.1	25.1	25.1	64	14.7	0	2	270	0.00	30.105 
00:30	25.1	25.1	25.1	64	14.7	0	1	270	0.00	30.100 
00:35	25.1	25.1	25.1	65	15.0	0	1	270	0.00	30.100 
00:40	25.1	25.1	25.1	65	15.0	0	2	270	0.00	30.100 
00:45	25.1	25.1	25.1	65	15.0	0	1	270	0.00	30.099 
00:50	25.1	25.1	25.1	65	15.0	0	2	270	0.00	30.099 
00:55	25.1	25.1	25.1	65	15.0	0	1	270	0.00	30.099 
01:00	25.3	25.3	25.3	65	15.2	0	1	270	0.00	30.097 
01:05	25.3	25.3	25.3	65	15.2	0	2	270	0.00	30.097 
01:10	25.3	25.3	25.3	65	15.2	0	1	270	0.00	30.097 
01:15	25.3	25.3	25.3	65	15.2	0	1	270	0.00	30.097 
01:20	25.3	25.3	25.3	65	15.2	0	1	270	0.00	30.097 
01:25	25.3	25.3	25.3	65	15.2	0	1	270	0.00	30.097 
01:30	25.3	25.3	25.3	65	15.2	0	1	270	0.00	30.097 
01:35	25.4	25.4	25.4	65	15.3	0	1	270	0.00	30.097 
01:40	25.4	25.4	25.4	65	15.3	0	1	270	0.00	30.097 
01:45	25.4	25.4	25.4	65	15.3	0	1	270	0.00	30.097 
01:50	25.4	25.4	25.4	65	15.3	0	1	270	0.00	30.097 
01:55	25.4	25.4	25.4	65	15.3	0	1	270	0.00	30.097 
02:00	25.4	25.4	25.4	65	15.3	0	1	270	0.00	30.097 
02:05	25.4	25.4	25.4	65	15.3	0	1	270	0.00	30.097 
02:10	25.4	25.4	25.4	65	15.3	0	1	270	0.00	30.097 
02:15	25.4	25.4	25.4	65	15.3	0	1	270	0.00	30.094 
02:20	25.4	25.4	25.4	65	15.3	0	1	270	0.00	30.094 
02:25	25.4	25.4	25.4	65	15.3	0	0	---	0.00	30.094 
02:30	25.6	25.6	25.6	65	15.5	0	1	270	0.00	30.083 
02:35	25.6	25.6	25.6	65	15.5	0	1	270	0.00	30.083 
02:40	25.6	25.6	25.6	65	15.5	0	1	270	0.00	30.083 
02:45	25.6	25.6	25.6	65	15.5	0	1	270	0.00	30.079 
02:50	25.6	25.6	25.6	65	15.5	0	1	270	0.00	30.079 
02:55	25.6	25.6	25.6	65	15.5	0	2	270	0.00	30.079 
03:00	25.6	25.6	25.6	65	15.5	0	1	270	0.00	30.075 
03:05	25.6	25.6	25.6	65	15.5	0	1	270	0.00	30.075 
03:10	25.7	25.7	25.7	65	15.6	0	1	270	0.00	30.075 
03:15	25.7	25.7	25.7	65	15.6	0	1	270	0.00	30.071 
03:20	25.7	25.7	25.7	66	15.9	0	1	270	0.00	30.071 
03:25	25.7	25.7	25.7	66	15.9	0	2	270	0.00	30.071 
03:30	25.7	25.7	25.7	67	16.3	0	2	270	0.00	30.070 
03:35	25.7	25.7	25.7	68	16.6	0	2	292	0.00	30.070 
03:40	25.7	25.7	25.7	69	17.0	0	2	292	0.00	30.070 
03:45	25.6	25.6	25.6	69	16.9	0	1	292	0.00	30.069 
03:50	25.6	25.6	25.6	70	17.2	1	3	292	0.00	30.069 
03:55	25.6	25.6	25.6	70	17.2	0	2	315	0.00	30.069 
04:00	25.6	25.6	25.6	70	17.2	0	1	315	0.00	30.066 
04:05	25.6	25.6	25.6	70	17.2	0	1	315	0.00	30.066 
04:10	25.6	25.6	25.6	70	17.2	0	1	315	0.00	30.066 
04:15	25.6	25.6	25.6	70	17.2	0	2	315	0.00	30.067 
04:20	25.6	25.6	25.6	70	17.2	0	2	315	0.00	30.067 
04:25	25.6	25.6	25.6	69	16.9	0	2	315	0.00	30.067 
04:30	25.6	25.6	25.6	69	16.9	0	2	315	0.00	30.066 
04:35	25.6	25.6	25.6	69	16.9	0	3	292	0.00	30.066 
04:40	25.6	25.6	25.6	69	16.9	0	2	292	0.00	30.066 
04:45	25.6	25.6	25.6	69	16.9	0	1	292	0.00	30.065 
04:50	25.6	25.6	25.6	69	16.9	0	1	292	0.00	30.065 
04:55	25.6	25.6	25.6	69	16.9	0	1	292	0.00	30.065 
05:00	25.6	25.6	25.6	69	16.9	0	2	292	0.00	30.066 
05:05	25.6	25.6	25.6	68	16.5	1	3	292	0.00	30.066 
05:10	25.6	25.6	25.6	68	16.5	0	2	315	0.00	30.066 
05:15	25.6	25.6	25.6	68	16.5	0	1	315	0.00	30.066 
05:20	25.6	25.6	25.6	68	16.5	0	1	315	0.00	30.066 
05:25	25.6	25.6	25.6	67	16.2	0	2	315	0.00	30.066 
05:30	25.6	25.6	25.6	65	15.5	0	2	315	0.00	30.066 
05:35	25.6	25.6	25.6	64	15.1	1	3	315	0.00	30.066 
05:40	25.6	25.6	25.6	65	15.5	1	4	315	0.00	30.066 
05:45	25.6	25.6	25.6	66	15.8	0	2	338	0.00	30.072 
05:50	25.4	25.4	25.4	68	16.3	0	3	338	0.00	30.072 
05:55	25.1	25.1	25.1	69	16.4	1	2	338	0.00	30.072 
06:00	25.0	25.0	25.0	70	16.6	0	2	338	0.00	30.072 
06:05	25.0	25.0	25.0	71	16.9	0	2	338	0.00	30.072 
06:10	24.8	24.8	24.8	71	16.8	1	4	338	0.00	30.072 
06:15	24.7	24.7	24.7	71	16.7	0	2	338	0.00	30.078 
06:20	24.7	24.7	24.7	72	17.0	0	2	0	0.00	30.078 
06:25	24.4	24.4	24.4	72	16.7	0	2	0	0.00	30.078 
06:30	24.2	24.2	24.2	72	16.5	0	1	0	0.00	30.079 
06:35	23.9	23.9	23.9	72	16.2	0	0	---	0.00	30.079 
06:40	23.8	23.8	23.8	73	16.4	0	0	---	0.00	30.079 
06:45	23.5	23.5	23.5	73	16.1	0	0	---	0.00	30.081 
06:50	23.3	23.3	23.3	73	15.9	0	0	---	0.00	30.081 
06:55	23.0	23.0	23.0	73	15.7	0	1	0	0.00	30.081 
07:00	23.0	23.0	23.0	73	15.7	0	1	0	0.00	30.083 
07:05	22.9	22.9	22.9	73	15.6	0	1	0	0.00	30.083 
07:10	22.7	22.7	22.7	73	15.4	0	1	0	0.00	30.083 
07:15	22.5	22.5	22.5	73	15.2	0	1	0	0.00	30.085 
07:20	22.4	22.4	22.4	73	15.1	0	1	0	0.00	30.085 
07:25	22.2	22.2	22.2	73	14.9	0	1	0	0.00	30.085 
07:30	22.1	22.1	22.1	73	14.8	0	2	0	0.00	30.085 
07:35	22.1	22.1	22.1	73	14.8	0	1	0	0.00	30.085 
07:40	22.1	22.1	22.1	73	14.8	0	0	---	0.00	30.085 
07:45	22.1	22.1	22.1	73	14.8	0	1	0	0.00	30.092 
07:50	22.2	22.2	22.2	73	14.9	0	2	0	0.00	30.092 
07:55	22.4	22.4	22.4	73	15.1	0	2	0	0.00	30.092 
08:00	22.4	22.4	22.4	73	15.1	0	1	0	0.00	30.098 
08:05	22.7	22.7	22.7	73	15.4	0	2	0	0.00	30.098 
08:10	23.0	23.0	23.0	72	15.3	0	2	0	0.00	30.098 
08:15	23.2	23.2	23.2	71	15.2	1	3	315	0.00	30.101 
08:20	23.3	23.3	23.3	70	15.0	1	3	315	0.00	30.101 
08:25	23.5	23.5	23.5	69	14.9	1	4	292	0.00	30.101 
08:30	23.6	23.6	23.6	69	14.9	1	3	292	0.00	30.102 
08:35	23.8	23.8	23.8	68	14.8	1	4	315	0.00	30.102 
08:40	23.9	23.9	23.9	67	14.6	1	2	338	0.00	30.102 
08:45	24.1	24.1	24.1	66	14.4	1	2	338	0.00	30.105 
08:50	24.2	24.2	24.2	66	14.5	1	4	0	0.00	30.105 
08:55	24.4	24.4	24.4	65	14.3	1	3	22	0.00	30.105 
09:00	24.7	24.7	24.7	65	14.6	1	4	0	0.00	30.101 
09:05	24.8	24.8	24.8	65	14.7	1	3	315	0.00	30.101 
09:10	25.0	25.0	25.0	63	14.2	1	7	338	0.00	30.101 
09:15	25.1	25.1	25.1	62	13.9	1	4	338	0.00	30.105 
09:20	25.0	25.0	25.0	61	13.5	2	7	0	0.00	30.105 
09:25	25.0	25.0	25.0	61	13.5	2	5	338	0.00	30.105 
09:30	25.3	25.3	25.3	61	13.8	2	5	338	0.00	30.106 
09:35	25.4	25.4	25.4	60	13.5	2	5	338	0.00	30.106 
09:40	25.6	25.6	25.6	60	13.7	2	4	315	0.00	30.106 
09:45	25.8	25.8	25.8	60	13.9	2	6	315	0.00	30.102 
09:50	25.8	25.8	25.8	60	13.9	2	5	338	0.00	30.102 
09:55	26.0	26.0	26.0	59	13.7	1	5	0	0.00	30.102 
10:00	26.4	26.4	26.4	60	14.4	1	5	0	0.00	30.099 
10:05	26.4	26.4	26.4	58	13.7	3	9	338	0.00	30.099 
10:10	26.3	26.3	26.3	58	13.6	2	6	338	0.00	30.099 
10:15	26.6	26.6	26.6	59	14.2	3	5	338	0.00	30.099 
10:20	26.9	26.9	26.9	58	14.1	2	7	338	0.00	30.099 
10:25	27.2	27.2	27.2	57	14.0	2	9	0	0.00	30.099 
10:30	27.3	27.3	27.3	57	14.1	2	5	0	0.00	30.098 
10:35	27.6	27.6	27.6	57	14.4	2	7	338	0.00	30.098 
10:40	27.3	27.3	27.3	56	13.7	3	7	338	0.00	30.098 
10:45	27.5	27.5	27.5	58	14.7	2	5	338	0.00	30.098 
10:50	27.6	27.6	27.6	58	14.8	2	5	338	0.00	30.098 
10:55	27.8	27.8	27.8	57	14.6	2	4	315	0.00	30.098 
11:00	27.8	27.8	27.8	56	14.2	2	7	338	0.00	30.095 
11:05	27.5	27.5	27.5	58	14.7	1	5	338	0.00	30.095 
11:10	27.6	27.6	27.6	57	14.4	2	6	338	0.00	30.095 
11:15	28.2	28.2	28.2	56	14.5	2	9	338	0.00	30.097 
11:20	28.1	28.1	28.1	56	14.5	3	6	270	0.00	30.097 
11:25	28.1	28.1	28.1	55	14.0	2	6	270	0.00	30.097 
11:30	28.5	28.5	28.5	56	14.8	2	4	338	0.00	30.094 
11:35	28.5	28.5	28.5	56	14.8	2	7	248	0.00	30.094 
11:40	29.0	29.0	29.0	54	14.5	3	10	315	0.00	30.094 
11:45	29.0	29.0	29.0	55	14.9	2	9	315	0.00	30.093 
11:50	29.3	29.3	29.3	53	14.3	3	7	338	0.00	30.093 
11:55	29.5	29.5	29.5	55	15.3	3	6	270	0.00	30.093 
12:00	30.0	30.0	30.0	54	15.4	3	7	292	0.00	30.093 
12:05	29.5	29.5	29.5	51	13.6	3	7	0	0.00	30.093 
12:10	29.7	29.7	29.7	54	15.1	2	9	315	0.00	30.093 
12:15	29.7	29.7	29.7	52	14.3	2	6	0	0.00	30.086 
12:20	29.0	29.0	29.0	50	12.7	3	7	338	0.00	30.086 
12:25	29.1	29.1	29.1	54	14.6	2	9	0	0.00	30.086 
12:30	29.7	29.7	29.7	52	14.3	2	6	270	0.00	30.083 
12:35	29.7	29.7	29.7	53	14.7	3	11	270	0.00	30.083 
12:40	29.3	29.3	29.3	52	13.9	3	6	315	0.00	30.083 
12:45	30.1	30.1	30.1	53	15.1	3	9	338	0.00	30.079 
12:50	31.0	31.0	31.0	53	15.9	3	7	270	0.00	30.079 
12:55	30.9	30.9	30.9	50	14.5	3	8	270	0.00	30.079 
13:00	30.6	30.6	30.6	50	14.2	3	7	270	0.00	30.070 
13:05	29.8	29.8	29.8	50	13.5	3	9	338	0.00	30.070 
13:10	30.1	30.1	30.1	50	13.7	3	6	338	0.00	30.070 
13:15	30.4	30.4	30.4	50	14.0	2	6	0	0.00	30.064 
13:20	30.6	30.6	30.6	51	14.6	3	8	338	0.00	30.064 
13:25	30.0	30.0	30.0	50	13.6	2	5	292	0.00	30.064 
13:30	30.0	30.0	30.0	51	14.1	2	6	338	0.00	30.064 
13:35	30.1	30.1	30.1	51	14.2	2	9	292	0.00	30.064 
13:40	30.9	30.9	30.9	51	14.9	1	4	338	0.00	30.064 
13:45	30.7	30.7	30.7	50	14.3	2	7	0	0.00	30.059 
13:50	30.6	30.6	30.6	51	14.6	1	4	338	0.00	30.059 
13:55	30.9	30.9	30.9	52	15.4	1	5	338	0.00	30.059 
14:00	31.8	31.8	31.8	51	15.8	2	7	338	0.00	30.052 
14:05	31.5	31.5	31.5	50	15.0	1	6	338	0.00	30.052 
14:10	30.6	30.6	30.6	48	13.3	2	9	338	0.00	30.052 
14:15	30.1	30.1	30.1	48	12.8	1	5	338	0.00	30.052 
14:20	30.9	30.9	30.9	49	14.0	1	4	315	0.00	30.052 
14:25	31.5	31.5	31.5	50	15.0	2	7	0	0.00	30.052 
14:30	31.6	31.6	31.6	49	14.7	2	6	338	0.00	30.049 
14:35	31.2	31.2	31.2	49	14.3	1	6	270	0.00	30.049 
14:40	30.6	30.6	30.6	49	13.7	2	5	315	0.00	30.049 
14:45	30.4	30.4	30.4	50	14.0	2	5	315	0.00	30.049 
14:50	31.2	31.2	31.2	51	15.2	2	9	315	0.00	30.049 
14:55	32.2	32.2	32.2	49	15.2	2	5	315	0.00	30.049 
15:00	32.5	32.5	32.5	49	15.5	2	5	270	0.00	30.046 
15:05	32.7	32.7	32.7	48	15.2	2	4	338	0.00	30.046 
15:10	31.8	31.8	31.8	48	14.4	2	6	315	0.00	30.046 
15:15	31.3	31.3	31.3	49	14.4	2	5	338	0.00	30.045 
15:20	31.5	31.5	31.5	48	14.1	3	9	292	0.00	30.045 
15:25	31.6	31.6	31.6	49	14.7	1	6	338	0.00	30.045 
15:30	31.5	31.5	31.5	49	14.6	1	4	338	0.00	30.046 
15:35	30.9	30.9	30.9	48	13.5	3	9	292	0.00	30.046 
15:40	31.0	31.0	31.0	49	14.1	1	4	0	0.00	30.046 
15:45	31.8	31.8	31.8	48	14.4	2	6	270	0.00	30.046 
15:50	32.2	32.2	32.2	46	13.8	2	5	248	0.00	30.046 
15:55	32.1	32.1	32.1	48	14.6	2	5	338	0.00	30.046 
16:00	31.9	31.9	31.9	47	14.0	3	10	315	0.00	30.046 
16:05	31.3	31.3	31.3	47	13.4	2	4	315	0.00	30.046 
16:10	31.0	31.0	31.0	49	14.1	1	3	315	0.00	30.046 
16:15	31.3	31.3	31.3	47	13.4	2	7	315	0.00	30.047 
16:20	31.5	31.5	31.5	47	13.6	2	4	315	0.00	30.047 
16:25	31.6	31.6	31.6	48	14.2	2	6	270	0.00	30.047 
16:30	31.9	31.9	31.9	48	14.5	2	5	248	0.00	30.045 
16:35	31.9	31.9	31.9	47	14.0	1	6	315	0.00	30.045 
16:40	32.1	32.1	32.1	49	15.1	2	5	0	0.00	30.045 
16:45	31.9	31.9	31.9	48	14.5	2	6	338	0.00	30.044 
16:50	31.8	31.8	31.8	48	14.4	2	5	338	0.00	30.044 
16:55	31.5	31.5	31.5	48	14.1	2	4	338	0.00	30.044 
17:00	31.2	31.2	31.2	49	14.3	1	2	338	0.00	30.049 
17:05	31.2	31.2	31.2	49	14.3	1	3	338	0.00	30.049 
17:10	31.2	31.2	31.2	49	14.3	1	4	270	0.00	30.049 
17:15	30.9	30.9	30.9	49	14.0	2	3	315	0.00	30.050 
17:20	30.6	30.6	30.6	49	13.7	1	4	338	0.00	30.050 
17:25	30.3	30.3	30.3	49	13.5	2	5	315	0.00	30.050 
17:30	30.3	30.3	30.3	50	13.9	1	3	315	0.00	30.058 
17:35	30.1	30.1	30.1	51	14.2	1	3	270	0.00	30.058 
17:40	30.0	30.0	30.0	51	14.1	1	4	270	0.00	30.058 
17:45	30.0	30.0	30.0	51	14.1	1	3	315	0.00	30.061 
17:50	30.0	30.0	30.0	51	14.1	1	4	315	0.00	30.061 
17:55	30.0	30.0	30.0	50	13.6	1	4	315	0.00	30.061 
18:00	30.0	30.0	30.0	50	13.6	1	3	248	0.00	30.064 
18:05	30.1	30.1	30.1	51	14.2	1	3	248	0.00	30.064 
18:10	30.1	30.1	30.1	51	14.2	1	3	292	0.00	30.064 
18:15	30.1	30.1	30.1	51	14.2	1	3	292	0.00	30.068 
18:20	30.1	30.1	30.1	52	14.6	0	3	315	0.00	30.068 
18:25	30.1	30.1	30.1	52	14.6	1	4	315	0.00	30.068 
18:30	30.0	30.0	30.0	51	14.1	1	4	338	0.00	30.068 
18:35	30.0	30.0	30.0	52	14.5	0	1	315	0.00	30.068 
18:40	29.8	29.8	29.8	53	14.8	0	2	315	0.00	30.068 
18:45	29.8	29.8	29.8	53	14.8	0	1	315	0.00	30.070 
18:50	29.5	29.5	29.5	53	14.5	0	2	248	0.00	30.070 
18:55	29.4	29.4	29.4	53	14.4	1	3	248	0.00	30.070 
19:00	29.4	29.4	29.4	54	14.8	1	2	248	0.00	30.074 
19:05	29.3	29.3	29.3	54	14.7	1	3	270	0.00	30.074 
19:10	29.1	29.1	29.1	55	15.0	1	3	270	0.00	30.074 
19:15	29.0	29.0	29.0	55	14.9	0	2	338	0.00	30.082 
19:20	28.8	28.8	28.8	55	14.7	1	4	338	0.00	30.082 
19:25	28.8	28.8	28.8	55	14.7	1	5	248	0.00	30.082 
19:30	28.7	28.7	28.7	56	15.0	1	2	292	0.00	30.082 
19:35	28.5	28.5	28.5	56	14.8	1	3	292	0.00	30.082 
19:40	28.5	28.5	28.5	57	15.2	1	3	270	0.00	30.082 
19:45	28.4	28.4	28.4	57	15.1	0	2	315	0.00	30.085 
19:50	28.2	28.2	28.2	58	15.3	1	2	315	0.00	30.085 
19:55	28.1	28.1	28.1	58	15.3	1	3	315	0.00	30.085 
20:00	27.9	27.9	27.9	59	15.5	1	3	248	0.00	30.090 
20:05	27.8	27.8	27.8	59	15.4	0	2	248	0.00	30.090 
20:10	27.6	27.6	27.6	60	15.6	1	2	248	0.00	30.090 
20:15	27.6	27.6	27.6	60	15.6	1	2	270	0.00	30.094 
20:20	27.5	27.5	27.5	60	15.5	0	2	292	0.00	30.094 
20:25	27.3	27.3	27.3	60	15.3	1	3	248	0.00	30.094 
20:30	27.3	27.3	27.3	61	15.7	1	4	248	0.00	30.096 
20:35	27.2	27.2	27.2	61	15.6	1	3	248	0.00	30.096 
20:40	27.0	27.0	27.0	61	15.4	1	2	248	0.00	30.096 
20:45	26.9	26.9	26.9	61	15.3	0	2	338	0.00	30.097 
20:50	26.7	26.7	26.7	61	15.1	0	1	338	0.00	30.097 
20:55	26.6	26.6	26.6	61	15.0	0	2	270	0.00	30.097 
21:00	26.6	26.6	26.6	62	15.4	0	1	270	0.00	30.098 
21:05	26.4	26.4	26.4	62	15.2	0	1	270	0.00	30.098 
21:10	26.3	26.3	26.3	62	15.1	0	1	270	0.00	30.098 
21:15	26.1	26.1	26.1	62	14.9	0	2	270	0.00	30.099 
21:20	26.0	26.0	26.0	62	14.8	0	0	---	0.00	30.099 
21:25	25.8	25.8	25.8	62	14.6	0	0	---	0.00	30.099 
21:30	25.6	25.6	25.6	63	14.8	0	0	---	0.00	30.099 
21:35	25.4	25.4	25.4	63	14.6	0	0	---	0.00	30.099 
21:40	25.3	25.3	25.3	63	14.5	0	0	---	0.00	30.099 
21:45	25.0	25.0	25.0	64	14.6	0	0	---	0.00	30.102 
21:50	24.7	24.7	24.7	64	14.3	0	0	---	0.00	30.102 
21:55	24.5	24.5	24.5	65	14.4	0	0	---	0.00	30.102 
22:00	24.2	24.2	24.2	65	14.2	0	1	270	0.00	30.102 
22:05	24.1	24.1	24.1	66	14.4	0	1	270	0.00	30.102 
22:10	24.1	24.1	24.1	65	14.1	0	2	270	0.00	30.102 
22:15	24.2	24.2	24.2	65	14.2	0	1	270	0.00	30.100 
22:20	24.2	24.2	24.2	64	13.8	0	1	270	0.00	30.100 
22:25	24.2	24.2	24.2	64	13.8	0	2	270	0.00	30.100 
22:30	24.1	24.1	24.1	64	13.7	0	1	270	0.00	30.098 
22:35	24.1	24.1	24.1	64	13.7	0	1	270	0.00	30.098 
22:40	23.9	23.9	23.9	64	13.5	0	1	270	0.00	30.098 
22:45	23.8	23.8	23.8	65	13.8	0	0	---	0.00	30.099 
22:50	23.6	23.6	23.6	65	13.6	0	1	270	0.00	30.099 
22:55	23.5	23.5	23.5	65	13.5	0	0	---	0.00	30.099 
23:00	23.2	23.2	23.2	65	13.2	0	0	---	0.00	30.100 
23:05	23.0	23.0	23.0	65	13.0	0	0	---	0.00	30.100 
23:10	22.7	22.7	22.7	66	13.1	0	0	---	0.00	30.100 
23:15	22.4	22.4	22.4	66	12.8	0	0	---	0.00	30.098 
23:20	22.1	22.1	22.1	67	12.8	0	0	---	0.00	30.098 
23:25	21.8	21.8	21.8	67	12.6	0	0	---	0.00	30.098 
23:30	21.4	21.4	21.4	67	12.2	0	0	---	0.00	30.099 
23:35	21.1	21.1	21.1	68	12.2	0	0	---	0.00	30.099 
23:40	20.8	20.8	20.8	69	12.3	0	0	---	0.00	30.099 
23:45	20.6	20.6	20.6	70	12.4	0	0	---	0.00	30.107 
23:50	20.5	20.5	20.5	71	12.6	0	0	---	0.00	30.107 
23:55	20.5	20.5	20.5	72	12.9	0	0	---	0.00	30.107 

CoCoRaHS
IN-AL-39
A2 Web Hosting
Creative Commons License
GoDaddy
search engine by freefind advanced

loaded 2018-11-17 13:05:33 • last modified 2010-11-18 10:43:29
Privacy PolicyDisclaimer
• wx.awcolley.com is powered by PmWiki v.2002016 •
• all content (unless otherwise noted) © 2018 A W Colley